createdAt,value
2018-09-11T00:00:06.224Z,3.30
2018-09-11T00:05:10.371Z,4.00
2018-09-11T00:10:14.329Z,2.90
2018-09-11T00:15:17.776Z,3.47
2018-09-11T00:20:21.666Z,3.73
2018-09-11T00:25:25.190Z,3.63
2018-09-11T00:30:29.401Z,3.07
2018-09-11T00:35:49.381Z,2.30
2018-09-11T00:40:53.828Z,3.60
2018-09-11T00:45:57.617Z,3.50
2018-09-11T00:51:01.519Z,3.17
2018-09-11T00:56:05.043Z,3.80
2018-09-11T01:01:08.849Z,3.00
2018-09-11T01:06:13.242Z,3.20
2018-09-11T01:11:17.922Z,4.07
2018-09-11T01:16:22.722Z,3.50
2018-09-11T01:21:26.731Z,3.30
2018-09-11T01:26:30.276Z,3.23
2018-09-11T01:31:33.689Z,4.07
2018-09-11T01:36:38.162Z,3.37
2018-09-11T01:41:42.441Z,2.90
2018-09-11T01:46:48.435Z,2.40
2018-09-11T01:51:52.716Z,4.70
2018-09-11T01:56:56.138Z,3.13
2018-09-11T02:02:00.076Z,3.40
2018-09-11T02:07:04.038Z,2.83
2018-09-11T02:12:07.647Z,3.47
2018-09-11T02:17:11.624Z,3.50
2018-09-11T02:22:15.650Z,3.30
2018-09-11T02:27:19.702Z,3.80
2018-09-11T02:32:23.716Z,3.40
2018-09-11T02:37:27.642Z,4.13
2018-09-11T02:42:31.564Z,2.87
2018-09-11T02:47:45.739Z,3.67
2018-09-11T02:52:50.757Z,3.50
2018-09-11T02:57:54.414Z,3.23
2018-09-11T03:02:58.478Z,3.90
2018-09-11T03:08:07.910Z,3.27
2018-09-11T03:13:11.833Z,3.20
2018-09-11T03:18:15.497Z,4.43
2018-09-11T03:23:19.646Z,3.60
2018-09-11T03:28:23.587Z,3.53
2018-09-11T03:33:27.064Z,7.90
2018-09-11T03:38:30.927Z,2.97
2018-09-11T03:43:35.227Z,5.20
2018-09-11T03:48:38.611Z,4.43
2018-09-11T03:53:48.403Z,3.80
2018-09-11T03:58:52.855Z,4.27
2018-09-11T04:03:56.407Z,4.00
2018-09-11T04:09:01.310Z,3.23
2018-09-11T04:14:04.689Z,4.40
2018-09-11T04:19:08.245Z,3.50
2018-09-11T04:24:16.429Z,3.50
2018-09-11T04:29:21.355Z,3.90
2018-09-11T04:34:25.129Z,4.00
2018-09-11T04:39:28.558Z,5.67
2018-09-11T04:44:32.039Z,4.33
2018-09-11T04:49:40.218Z,4.83
2018-09-11T04:54:44.488Z,4.70
2018-09-11T04:59:48.185Z,4.10
2018-09-11T05:04:51.569Z,5.00
2018-09-11T05:09:55.215Z,6.87
2018-09-11T05:14:58.665Z,5.00
2018-09-11T05:20:02.110Z,7.00
2018-09-11T05:25:05.735Z,4.10
2018-09-11T05:30:09.671Z,5.23
2018-09-11T05:35:13.379Z,4.80
2018-09-11T05:40:16.787Z,6.80
2018-09-11T05:45:20.201Z,4.90
2018-09-11T05:50:24.237Z,5.53
2018-09-11T05:55:28.026Z,2.53
2018-09-11T06:00:31.884Z,3.57
2018-09-11T06:05:35.302Z,3.43
2018-09-11T06:10:38.954Z,3.90
2018-09-11T06:15:42.558Z,4.30
2018-09-11T06:20:51.482Z,5.77
2018-09-11T06:25:55.390Z,5.60
2018-09-11T06:30:58.804Z,7.13
2018-09-11T06:36:02.671Z,8.90
2018-09-11T06:41:06.286Z,5.63
2018-09-11T06:46:09.743Z,5.40
2018-09-11T06:51:13.178Z,4.93
2018-09-11T06:56:16.706Z,8.70
2018-09-11T07:01:20.222Z,11.00
2018-09-11T07:06:24.042Z,15.77
2018-09-11T07:11:27.922Z,13.30
2018-09-11T07:16:31.474Z,13.63
2018-09-11T07:21:35.471Z,12.90
2018-09-11T07:26:39.355Z,13.67
2018-09-11T07:31:42.875Z,11.00
2018-09-11T07:36:46.531Z,14.60
2018-09-11T07:41:49.872Z,13.93
2018-09-11T07:47:01.472Z,10.20
2018-09-11T07:52:13.582Z,11.90
2018-09-11T07:57:19.132Z,11.27
2018-09-11T08:02:22.701Z,9.50
2018-09-11T08:07:27.955Z,11.30
2018-09-11T08:12:32.009Z,8.33
2018-09-11T08:17:35.581Z,7.90
2018-09-11T08:22:39.935Z,11.10
2018-09-11T08:27:43.619Z,9.47
2018-09-11T08:32:47.070Z,8.97
2018-09-11T08:37:50.462Z,6.50
2018-09-11T08:42:54.178Z,11.50
2018-09-11T08:47:57.684Z,12.30
2018-09-11T08:53:01.075Z,14.13
2018-09-11T08:58:04.774Z,15.23
2018-09-11T09:03:08.226Z,13.73
2018-09-11T09:08:11.613Z,15.90
2018-09-11T09:13:15.052Z,15.83
2018-09-11T09:18:18.585Z,18.97
2018-09-11T09:23:21.979Z,23.10
2018-09-11T09:28:25.558Z,19.37
2018-09-11T09:33:28.966Z,23.43
2018-09-11T09:38:32.375Z,21.20
2018-09-11T09:43:35.921Z,19.70
2018-09-11T09:48:39.717Z,19.23
2018-09-11T09:53:43.146Z,23.33
2018-09-11T09:58:46.879Z,27.00
2018-09-11T10:03:50.304Z,19.60
2018-09-11T10:08:53.704Z,28.73
2018-09-11T10:13:57.230Z,25.53
2018-09-11T10:19:01.095Z,29.00
2018-09-11T10:24:08.186Z,24.47
2018-09-11T10:29:12.115Z,20.33
2018-09-11T10:34:15.490Z,16.83
2018-09-11T10:39:18.921Z,15.97
2018-09-11T10:44:22.347Z,15.30
2018-09-11T10:49:26.218Z,13.37
2018-09-11T10:54:29.644Z,13.97
2018-09-11T10:59:33.350Z,12.77
2018-09-11T11:04:36.869Z,13.17
2018-09-11T11:09:40.426Z,12.87
2018-09-11T11:14:44.073Z,10.70
2018-09-11T11:19:47.579Z,11.20
2018-09-11T11:24:51.248Z,11.10
2018-09-11T11:29:54.722Z,11.03
2018-09-11T11:34:58.179Z,9.77
2018-09-11T11:40:01.696Z,9.33
2018-09-11T11:45:05.835Z,8.70
2018-09-11T11:50:09.299Z,8.10
2018-09-11T11:55:13.229Z,6.83
2018-09-11T12:00:16.840Z,7.47
2018-09-11T12:05:20.310Z,7.73
2018-09-11T12:10:23.750Z,6.60
2018-09-11T12:15:27.214Z,5.20
2018-09-11T12:20:30.644Z,7.53
2018-09-11T12:25:39.455Z,7.77
2018-09-11T12:30:51.789Z,7.73
2018-09-11T12:35:55.470Z,8.10
2018-09-11T12:40:58.856Z,9.60
2018-09-11T12:46:03.203Z,9.00
2018-09-11T12:51:06.523Z,9.57
2018-09-11T12:56:09.970Z,8.63
2018-09-11T13:01:14.532Z,9.40
2018-09-11T13:06:18.292Z,7.70
2018-09-11T13:11:21.729Z,7.73
2018-09-11T13:16:25.451Z,9.20
2018-09-11T13:21:29.099Z,11.53
2018-09-11T13:26:32.547Z,9.20
2018-09-11T13:31:36.475Z,0.50
2018-09-11T13:36:39.917Z,0.53
2018-09-11T13:41:43.346Z,11.97
2018-09-11T13:46:46.930Z,10.70
2018-09-11T13:51:50.397Z,13.70
2018-09-11T13:56:53.795Z,12.40
2018-09-11T14:01:57.995Z,12.70
2018-09-11T14:07:01.475Z,12.60
2018-09-11T14:12:05.027Z,12.33
2018-09-11T14:17:08.507Z,7.33
2018-09-11T14:22:12.009Z,6.93
2018-09-11T14:27:15.398Z,7.40
2018-09-11T14:32:18.863Z,8.07
2018-09-11T14:37:23.979Z,8.20
2018-09-11T14:42:27.497Z,8.80
2018-09-11T14:47:36.413Z,7.40
2018-09-11T14:52:39.820Z,7.50
2018-09-11T14:57:43.256Z,7.60
2018-09-11T15:02:46.936Z,9.00
2018-09-11T15:07:50.770Z,7.67
2018-09-11T15:12:54.208Z,7.53
2018-09-11T15:17:57.987Z,8.80
2018-09-11T15:23:01.448Z,7.30
2018-09-11T15:28:04.904Z,9.67
2018-09-11T15:33:08.427Z,7.50
2018-09-11T15:38:12.257Z,7.73
2018-09-11T15:43:15.712Z,8.90
2018-09-11T15:48:23.716Z,7.63
2018-09-11T15:53:31.139Z,8.40
2018-09-11T15:58:36.181Z,8.03
2018-09-11T16:03:39.650Z,7.10
2018-09-11T16:08:43.099Z,8.50
2018-09-11T16:13:46.987Z,7.10
2018-09-11T16:18:50.796Z,6.60
2018-09-11T16:24:02.725Z,6.30
2018-09-11T16:29:07.006Z,6.23
2018-09-11T16:34:10.807Z,5.57
2018-09-11T16:39:14.283Z,5.13
2018-09-11T16:44:18.298Z,6.13
2018-09-11T16:49:22.100Z,6.47
2018-09-11T16:54:25.644Z,5.77
2018-09-11T16:59:29.113Z,6.23
2018-09-11T17:04:32.836Z,6.53
2018-09-11T17:15:10.382Z,7.83
2018-09-11T17:20:14.144Z,7.40
2018-09-11T17:25:17.694Z,6.07
2018-09-11T17:30:21.179Z,8.53
2018-09-11T17:35:24.753Z,6.20
2018-09-11T17:40:31.195Z,6.70
2018-09-11T17:45:34.957Z,4.50
2018-09-11T17:50:38.986Z,4.53
2018-09-11T17:56:04.924Z,4.50
2018-09-11T18:01:08.756Z,4.60
2018-09-11T18:06:12.681Z,4.80
2018-09-11T18:11:16.346Z,5.33
2018-09-11T18:16:21.163Z,4.07
2018-09-11T18:21:24.962Z,5.77
2018-09-11T18:26:28.821Z,4.00
2018-09-11T18:31:35.547Z,6.57
2018-09-11T18:36:40.560Z,6.00
2018-09-11T18:41:44.263Z,6.27
2018-09-11T18:46:47.842Z,7.20
2018-09-11T18:51:51.577Z,6.80
2018-09-11T18:56:55.373Z,7.13
2018-09-11T19:01:59.231Z,6.03
2018-09-11T19:07:03.015Z,6.97
2018-09-11T19:12:06.283Z,6.53
2018-09-11T19:17:10.749Z,7.23
2018-09-11T19:22:15.077Z,6.90
2018-09-11T19:27:18.965Z,6.30
2018-09-11T19:32:22.973Z,6.30
2018-09-11T19:37:27.021Z,7.00
2018-09-11T19:42:30.966Z,6.00
2018-09-11T19:47:34.805Z,5.60
2018-09-11T19:52:38.933Z,7.67
2018-09-11T19:57:43.081Z,7.10
2018-09-11T20:02:47.423Z,7.27
2018-09-11T20:07:51.838Z,6.47
2018-09-11T20:12:55.707Z,8.67
2018-09-11T20:17:59.680Z,6.80
2018-09-11T20:23:03.410Z,5.83
2018-09-11T20:28:07.379Z,6.40
2018-09-11T20:33:10.898Z,4.93
2018-09-11T20:38:14.574Z,6.00
2018-09-11T20:43:17.943Z,7.20
2018-09-11T20:48:21.749Z,6.47
2018-09-11T20:53:25.318Z,7.37
2018-09-11T20:58:28.742Z,6.10
2018-09-11T21:03:32.196Z,5.97
2018-09-11T21:08:36.396Z,5.90
2018-09-11T21:13:41.254Z,4.70
2018-09-11T21:18:44.974Z,5.57
2018-09-11T21:23:49.193Z,6.23
2018-09-11T21:28:53.054Z,5.20
2018-09-11T21:33:56.550Z,3.87
2018-09-11T21:39:00.677Z,5.80
2018-09-11T21:44:04.170Z,5.10
2018-09-11T21:49:08.791Z,5.07
2018-09-11T21:54:15.146Z,5.83
2018-09-11T21:59:22.600Z,5.67
2018-09-11T22:04:26.236Z,3.40
2018-09-11T22:09:30.761Z,6.10
2018-09-11T22:14:37.839Z,5.60
2018-09-11T22:19:41.578Z,6.30
2018-09-11T22:24:45.103Z,6.10
2018-09-11T22:29:48.683Z,7.40
2018-09-11T22:34:52.769Z,6.23
2018-09-11T22:39:56.369Z,7.70
2018-09-11T22:45:00.338Z,6.73
2018-09-11T22:50:04.117Z,5.03
2018-09-11T22:55:07.774Z,5.97
2018-09-11T23:00:12.822Z,6.23
2018-09-11T23:05:16.814Z,6.40
2018-09-11T23:10:20.761Z,7.40
2018-09-11T23:15:24.420Z,5.33
2018-09-11T23:20:47.477Z,6.27
2018-09-11T23:25:53.359Z,6.70
2018-09-11T23:30:56.750Z,6.57
2018-09-11T23:36:00.901Z,6.47
2018-09-11T23:41:06.309Z,6.43
2018-09-11T23:46:09.700Z,6.77
2018-09-11T23:51:13.170Z,7.23
2018-09-11T23:56:16.638Z,7.43
